Airfield :
LOGIN :

Register | Disclaimer

   EN    FR    IT 

 










Legend :    VFR   Marginal VFR   IFR   Intensive IFR   Very Intensive IFR
Visi :
Ceiling :
>= 8 km
>= 3000ft
5 to 8 km
1000 to 3000 ft
1500m to 5 km
500 to 1000 ft
800 to 1500m
200 to 500 ft
< 800m
< 200 ft
Symbols :   Thunderstorms  Fog  Heavy snow  Heavy precipitations  Wind > 20 kt
SIGMETs :     Misc.  Thunderstorms  Icing  Turbulence  Mountain Waves  Volcanic Ashes







- Airport Elevation : 53 ft
- IATA code : HAM


EDDH - Hamburg

CURRENT METAR :
  • 191820Z 30012G23KT 270V330 4000 +SHRA FEW014 BKN019CB 12/11 Q1017 BECMG 9999 NSW

EXPIRED METARs :
  • 191750Z 25005KT 9999 -SHRA FEW020CB BKN080 13/10 Q1016 TEMPO 4000 SHRA BKN020CB
  • 191720Z 25004KT 9999 FEW025 SCT070 13/10 Q1016 TEMPO SHRA BKN020CB
  • 191650Z 26004KT 9999 FEW025 SCT075 13/09 Q1016 NOSIG
  • 191620Z 27007KT 9999 FEW026 SCT074 15/09 Q1016 NOSIG
  • 191550Z 26008KT 230V300 9999 VCSH FEW026 SCT074 15/10 Q1016 NOSIG

TAF TAF EDDH
Valid from the 19 at 18:00 until the 21 at 00:00 UTC


191700Z 1918/2024 26005KT 9999 FEW030
PROB30
TEMPO 1918/1920 SHRA BKN020CB
BECMG 2002/2005 BKN012
PROB30
TEMPO 2004/2009 4000 -DZRA BKN007
BECMG 2007/2009 26010KT BKN025
TEMPO 2009/2013 BKN012
BECMG 2016/2018 23004KT
No reported NOTAMs for that airfield.



MET'MAP, your aeronautical weather chart ! - Copyright ORBIFLY December 2007 - Disclaimer

ORBIFLY MET'MAP TEAM :

Programming & Development : Alexandra Zaïnal
Concept & Development : Baudouin d'Aumeries
Co-Development & Prog : Marc-Olivier Méhu
Technical & hardware support : Manuel Goepfert

Contact : metmap@orbifly.com




SOURCES & CREDITS :

   NOAA